sensor_id;sensor_type;location;lat;lon;timestamp;temperature;humidity
65470;DHT22;52067;50.710;14.492;2022-08-19T00:01:47;21.58;73.92
65470;DHT22;52067;50.710;14.492;2022-08-19T00:04:14;21.53;73.84
65470;DHT22;52067;50.710;14.492;2022-08-19T00:06:42;21.29;74.85
65470;DHT22;52067;50.710;14.492;2022-08-19T00:09:10;21.22;75.41
65470;DHT22;52067;50.710;14.492;2022-08-19T00:11:36;21.00;76.13
65470;DHT22;52067;50.710;14.492;2022-08-19T00:14:03;20.67;77.27
65470;DHT22;52067;50.710;14.492;2022-08-19T00:16:29;20.76;76.85
65470;DHT22;52067;50.710;14.492;2022-08-19T00:18:55;20.65;76.96
65470;DHT22;52067;50.710;14.492;2022-08-19T00:21:21;20.71;77.03
65470;DHT22;52067;50.710;14.492;2022-08-19T00:23:47;20.59;77.42
65470;DHT22;52067;50.710;14.492;2022-08-19T00:26:13;20.41;78.33
65470;DHT22;52067;50.710;14.492;2022-08-19T00:28:40;20.35;78.36
65470;DHT22;52067;50.710;14.492;2022-08-19T00:31:07;20.31;78.44
65470;DHT22;52067;50.710;14.492;2022-08-19T00:33:33;20.00;79.31
65470;DHT22;52067;50.710;14.492;2022-08-19T00:36:00;19.97;79.86
65470;DHT22;52067;50.710;14.492;2022-08-19T00:38:25;20.16;79.04
65470;DHT22;52067;50.710;14.492;2022-08-19T00:40:51;20.05;79.59
65470;DHT22;52067;50.710;14.492;2022-08-19T00:43:22;19.92;80.24
65470;DHT22;52067;50.710;14.492;2022-08-19T00:45:48;20.13;79.42
65470;DHT22;52067;50.710;14.492;2022-08-19T00:48:16;20.20;78.79
65470;DHT22;52067;50.710;14.492;2022-08-19T00:50:43;20.09;79.08
65470;DHT22;52067;50.710;14.492;2022-08-19T00:53:13;20.09;79.21
65470;DHT22;52067;50.710;14.492;2022-08-19T00:55:42;20.12;79.10
65470;DHT22;52067;50.710;14.492;2022-08-19T00:58:12;20.17;79.10
65470;DHT22;52067;50.710;14.492;2022-08-19T01:00:38;19.93;79.76
65470;DHT22;52067;50.710;14.492;2022-08-19T01:03:10;19.58;81.39
65470;DHT22;52067;50.710;14.492;2022-08-19T01:05:37;19.63;81.10
65470;DHT22;52067;50.710;14.492;2022-08-19T01:08:04;19.68;80.83
65470;DHT22;52067;50.710;14.492;2022-08-19T01:10:35;19.62;80.76
65470;DHT22;52067;50.710;14.492;2022-08-19T01:13:03;19.49;81.48
65470;DHT22;52067;50.710;14.492;2022-08-19T01:15:32;19.52;80.97
65470;DHT22;52067;50.710;14.492;2022-08-19T01:18:01;19.38;81.39
65470;DHT22;52067;50.710;14.492;2022-08-19T01:20:29;19.42;81.32
65470;DHT22;52067;50.710;14.492;2022-08-19T01:22:57;19.36;81.47
65470;DHT22;52067;50.710;14.492;2022-08-19T01:25:29;19.06;82.75
65470;DHT22;52067;50.710;14.492;2022-08-19T01:27:55;19.14;82.50
65470;DHT22;52067;50.710;14.492;2022-08-19T01:30:25;19.14;82.51
65470;DHT22;52067;50.710;14.492;2022-08-19T01:32:52;19.17;82.44
65470;DHT22;52067;50.710;14.492;2022-08-19T01:35:19;18.76;83.40
65470;DHT22;52067;50.710;14.492;2022-08-19T01:37:59;18.87;83.39
65470;DHT22;52067;50.710;14.492;2022-08-19T01:40:28;18.90;83.35
65470;DHT22;52067;50.710;14.492;2022-08-19T01:42:55;18.94;83.65
65470;DHT22;52067;50.710;14.492;2022-08-19T01:45:23;19.21;83.05
65470;DHT22;52067;50.710;14.492;2022-08-19T01:47:49;19.47;83.12
65470;DHT22;52067;50.710;14.492;2022-08-19T01:50:14;19.59;82.79
65470;DHT22;52067;50.710;14.492;2022-08-19T01:52:42;19.76;82.45
65470;DHT22;52067;50.710;14.492;2022-08-19T01:55:11;19.89;82.23
65470;DHT22;52067;50.710;14.492;2022-08-19T01:57:39;20.05;81.89
65470;DHT22;52067;50.710;14.492;2022-08-19T02:00:09;20.13;81.34
65470;DHT22;52067;50.710;14.492;2022-08-19T02:02:35;20.27;81.38
65470;DHT22;52067;50.710;14.492;2022-08-19T02:05:00;20.21;81.37
65470;DHT22;52067;50.710;14.492;2022-08-19T02:07:25;20.35;80.77
65470;DHT22;52067;50.710;14.492;2022-08-19T02:09:53;20.34;81.01
65470;DHT22;52067;50.710;14.492;2022-08-19T02:12:20;20.45;80.50
65470;DHT22;52067;50.710;14.492;2022-08-19T02:14:46;20.48;80.63
65470;DHT22;52067;50.710;14.492;2022-08-19T02:17:11;20.54;80.69
65470;DHT22;52067;50.710;14.492;2022-08-19T02:19:36;20.59;80.50
65470;DHT22;52067;50.710;14.492;2022-08-19T02:22:02;20.64;80.31
65470;DHT22;52067;50.710;14.492;2022-08-19T02:24:27;20.55;80.54
65470;DHT22;52067;50.710;14.492;2022-08-19T02:26:53;20.64;80.59
65470;DHT22;52067;50.710;14.492;2022-08-19T02:29:19;20.59;80.56
65470;DHT22;52067;50.710;14.492;2022-08-19T02:31:44;20.58;80.54
65470;DHT22;52067;50.710;14.492;2022-08-19T02:34:10;20.56;80.65
65470;DHT22;52067;50.710;14.492;2022-08-19T02:36:35;20.59;80.73
65470;DHT22;52067;50.710;14.492;2022-08-19T02:39:01;20.59;80.59
65470;DHT22;52067;50.710;14.492;2022-08-19T02:41:32;20.56;80.75
65470;DHT22;52067;50.710;14.492;2022-08-19T02:43:59;20.56;80.70
65470;DHT22;52067;50.710;14.492;2022-08-19T02:46:28;20.52;80.96
65470;DHT22;52067;50.710;14.492;2022-08-19T02:48:56;20.49;81.13
65470;DHT22;52067;50.710;14.492;2022-08-19T02:51:30;20.51;81.25
65470;DHT22;52067;50.710;14.492;2022-08-19T02:53:57;20.47;81.57
65470;DHT22;52067;50.710;14.492;2022-08-19T02:56:23;20.52;81.33
65470;DHT22;52067;50.710;14.492;2022-08-19T02:58:50;20.61;81.20
65470;DHT22;52067;50.710;14.492;2022-08-19T03:01:25;20.61;81.36
65470;DHT22;52067;50.710;14.492;2022-08-19T03:03:52;20.68;81.14
65470;DHT22;52067;50.710;14.492;2022-08-19T03:06:17;20.76;80.91
65470;DHT22;52067;50.710;14.492;2022-08-19T03:08:45;20.78;80.97
65470;DHT22;52067;50.710;14.492;2022-08-19T03:11:23;20.86;80.75
65470;DHT22;52067;50.710;14.492;2022-08-19T03:13:49;20.82;80.81
65470;DHT22;52067;50.710;14.492;2022-08-19T03:16:19;20.86;80.86
65470;DHT22;52067;50.710;14.492;2022-08-19T03:18:45;20.93;80.61
65470;DHT22;52067;50.710;14.492;2022-08-19T03:21:19;20.89;80.95
65470;DHT22;52067;50.710;14.492;2022-08-19T03:23:45;20.84;80.99
65470;DHT22;52067;50.710;14.492;2022-08-19T03:26:11;20.98;80.50
65470;DHT22;52067;50.710;14.492;2022-08-19T03:28:36;20.96;80.62
65470;DHT22;52067;50.710;14.492;2022-08-19T03:33:28;20.95;80.61
65470;DHT22;52067;50.710;14.492;2022-08-19T03:36:22;21.00;80.23
65470;DHT22;52067;50.710;14.492;2022-08-19T03:38:50;20.99;80.75
65470;DHT22;52067;50.710;14.492;2022-08-19T03:41:19;21.16;80.01
65470;DHT22;52067;50.710;14.492;2022-08-19T03:43:46;21.19;80.01
65470;DHT22;52067;50.710;14.492;2022-08-19T03:46:20;21.23;79.81
65470;DHT22;52067;50.710;14.492;2022-08-19T03:48:47;21.33;79.58
65470;DHT22;52067;50.710;14.492;2022-08-19T03:51:18;21.20;80.00
65470;DHT22;52067;50.710;14.492;2022-08-19T03:53:45;21.10;80.43
65470;DHT22;52067;50.710;14.492;2022-08-19T03:56:11;21.03;80.67
65470;DHT22;52067;50.710;14.492;2022-08-19T03:58:37;21.13;80.16
65470;DHT22;52067;50.710;14.492;2022-08-19T04:01:12;21.13;80.25
65470;DHT22;52067;50.710;14.492;2022-08-19T04:03:38;21.22;80.03
65470;DHT22;52067;50.710;14.492;2022-08-19T04:08:45;21.13;80.35
65470;DHT22;52067;50.710;14.492;2022-08-19T04:11:15;21.05;80.92
65470;DHT22;52067;50.710;14.492;2022-08-19T04:13:41;21.23;80.51
65470;DHT22;52067;50.710;14.492;2022-08-19T04:16:09;21.24;80.22
65470;DHT22;52067;50.710;14.492;2022-08-19T04:18:36;21.29;79.94
65470;DHT22;52067;50.710;14.492;2022-08-19T04:21:02;21.39;79.75
65470;DHT22;52067;50.710;14.492;2022-08-19T04:23:28;21.44;79.51
65470;DHT22;52067;50.710;14.492;2022-08-19T04:25:54;21.50;79.18
65470;DHT22;52067;50.710;14.492;2022-08-19T04:28:20;21.26;80.03
65470;DHT22;52067;50.710;14.492;2022-08-19T04:30:48;21.14;81.12
65470;DHT22;52067;50.710;14.492;2022-08-19T04:33:16;21.26;80.34
65470;DHT22;52067;50.710;14.492;2022-08-19T04:35:47;21.20;80.83
65470;DHT22;52067;50.710;14.492;2022-08-19T04:38:14;21.29;80.69
65470;DHT22;52067;50.710;14.492;2022-08-19T04:40:45;20.95;81.58
65470;DHT22;52067;50.710;14.492;2022-08-19T04:43:31;21.02;81.37
65470;DHT22;52067;50.710;14.492;2022-08-19T04:45:57;21.03;81.07
65470;DHT22;52067;50.710;14.492;2022-08-19T04:48:23;21.18;80.86
65470;DHT22;52067;50.710;14.492;2022-08-19T04:50:56;21.32;80.97
65470;DHT22;52067;50.710;14.492;2022-08-19T04:53:27;21.26;81.08
65470;DHT22;52067;50.710;14.492;2022-08-19T04:55:57;21.16;81.75
65470;DHT22;52067;50.710;14.492;2022-08-19T04:58:25;21.33;81.06
65470;DHT22;52067;50.710;14.492;2022-08-19T05:00:51;21.58;80.00
65470;DHT22;52067;50.710;14.492;2022-08-19T05:03:17;21.19;81.18
65470;DHT22;52067;50.710;14.492;2022-08-19T05:05:43;21.46;80.00
65470;DHT22;52067;50.710;14.492;2022-08-19T05:08:10;21.32;80.59
65470;DHT22;52067;50.710;14.492;2022-08-19T05:10:37;21.39;80.74
65470;DHT22;52067;50.710;14.492;2022-08-19T05:13:03;21.53;80.34
65470;DHT22;52067;50.710;14.492;2022-08-19T05:15:29;21.47;80.28
65470;DHT22;52067;50.710;14.492;2022-08-19T05:17:54;21.40;80.88
65470;DHT22;52067;50.710;14.492;2022-08-19T05:20:38;21.50;80.48
65470;DHT22;52067;50.710;14.492;2022-08-19T05:23:23;21.63;79.98
65470;DHT22;52067;50.710;14.492;2022-08-19T05:25:49;21.75;79.54
65470;DHT22;52067;50.710;14.492;2022-08-19T05:28:16;21.95;78.81
65470;DHT22;52067;50.710;14.492;2022-08-19T05:30:41;21.73;79.86
65470;DHT22;52067;50.710;14.492;2022-08-19T05:33:08;21.97;79.48
65470;DHT22;52067;50.710;14.492;2022-08-19T05:35:36;21.68;79.91
65470;DHT22;52067;50.710;14.492;2022-08-19T05:38:02;21.94;79.33
65470;DHT22;52067;50.710;14.492;2022-08-19T05:40:28;22.05;78.66
65470;DHT22;52067;50.710;14.492;2022-08-19T05:42:53;21.95;78.81
65470;DHT22;52067;50.710;14.492;2022-08-19T05:45:19;21.92;78.83
65470;DHT22;52067;50.710;14.492;2022-08-19T05:47:46;22.08;78.79
65470;DHT22;52067;50.710;14.492;2022-08-19T05:50:12;22.11;78.22
65470;DHT22;52067;50.710;14.492;2022-08-19T05:52:38;22.22;77.64
65470;DHT22;52067;50.710;14.492;2022-08-19T05:55:04;21.99;78.77
65470;DHT22;52067;50.710;14.492;2022-08-19T05:57:30;22.13;77.97
65470;DHT22;52067;50.710;14.492;2022-08-19T05:59:57;22.16;77.96
65470;DHT22;52067;50.710;14.492;2022-08-19T06:02:26;22.28;77.83
65470;DHT22;52067;50.710;14.492;2022-08-19T06:04:52;22.33;77.43
65470;DHT22;52067;50.710;14.492;2022-08-19T06:07:17;22.09;77.64
65470;DHT22;52067;50.710;14.492;2022-08-19T06:09:42;22.08;78.17
65470;DHT22;52067;50.710;14.492;2022-08-19T06:12:08;22.15;77.83
65470;DHT22;52067;50.710;14.492;2022-08-19T06:14:35;22.23;77.59
65470;DHT22;52067;50.710;14.492;2022-08-19T06:17:01;22.13;77.82
65470;DHT22;52067;50.710;14.492;2022-08-19T06:19:28;21.99;78.66
65470;DHT22;52067;50.710;14.492;2022-08-19T06:21:55;21.97;78.34
65470;DHT22;52067;50.710;14.492;2022-08-19T06:24:25;21.97;78.25
65470;DHT22;52067;50.710;14.492;2022-08-19T06:26:52;22.02;78.11
65470;DHT22;52067;50.710;14.492;2022-08-19T06:29:20;22.05;77.90
65470;DHT22;52067;50.710;14.492;2022-08-19T06:31:48;21.90;78.20
65470;DHT22;52067;50.710;14.492;2022-08-19T06:34:17;21.75;77.93
65470;DHT22;52067;50.710;14.492;2022-08-19T06:36:47;21.98;77.79
65470;DHT22;52067;50.710;14.492;2022-08-19T06:39:15;22.08;77.36
65470;DHT22;52067;50.710;14.492;2022-08-19T06:41:44;22.02;77.25
65470;DHT22;52067;50.710;14.492;2022-08-19T06:44:11;22.04;77.42
65470;DHT22;52067;50.710;14.492;2022-08-19T06:46:38;22.21;77.12
65470;DHT22;52067;50.710;14.492;2022-08-19T06:49:03;22.22;77.07
65470;DHT22;52067;50.710;14.492;2022-08-19T06:51:29;22.36;76.33
65470;DHT22;52067;50.710;14.492;2022-08-19T06:53:56;22.22;77.21
65470;DHT22;52067;50.710;14.492;2022-08-19T06:56:25;22.48;75.96
65470;DHT22;52067;50.710;14.492;2022-08-19T06:58:56;22.66;75.36
65470;DHT22;52067;50.710;14.492;2022-08-19T07:01:21;22.73;75.05
65470;DHT22;52067;50.710;14.492;2022-08-19T07:03:47;22.91;74.36
65470;DHT22;52067;50.710;14.492;2022-08-19T07:06:16;23.00;74.07
65470;DHT22;52067;50.710;14.492;2022-08-19T07:08:43;23.17;73.49
65470;DHT22;52067;50.710;14.492;2022-08-19T07:11:11;23.27;72.80
65470;DHT22;52067;50.710;14.492;2022-08-19T07:13:38;23.31;73.04
65470;DHT22;52067;50.710;14.492;2022-08-19T07:16:09;23.45;72.13
65470;DHT22;52067;50.710;14.492;2022-08-19T07:18:35;23.55;72.15
65470;DHT22;52067;50.710;14.492;2022-08-19T07:21:05;23.41;72.15
65470;DHT22;52067;50.710;14.492;2022-08-19T07:23:31;23.14;73.60
65470;DHT22;52067;50.710;14.492;2022-08-19T07:25:57;23.06;74.04
65470;DHT22;52067;50.710;14.492;2022-08-19T07:28:22;23.21;73.11
65470;DHT22;52067;50.710;14.492;2022-08-19T07:30:48;23.25;73.04
65470;DHT22;52067;50.710;14.492;2022-08-19T07:33:14;23.42;72.66
65470;DHT22;52067;50.710;14.492;2022-08-19T07:35:40;23.58;72.62
65470;DHT22;52067;50.710;14.492;2022-08-19T07:38:05;23.27;72.72
65470;DHT22;52067;50.710;14.492;2022-08-19T07:40:31;23.31;73.86
65470;DHT22;52067;50.710;14.492;2022-08-19T07:42:57;23.51;72.96
65470;DHT22;52067;50.710;14.492;2022-08-19T07:45:23;23.69;71.60
65470;DHT22;52067;50.710;14.492;2022-08-19T07:47:48;23.63;71.06
65470;DHT22;52067;50.710;14.492;2022-08-19T07:50:15;23.69;70.88
65470;DHT22;52067;50.710;14.492;2022-08-19T07:52:41;23.72;70.73
65470;DHT22;52067;50.710;14.492;2022-08-19T07:55:10;23.65;70.99
65470;DHT22;52067;50.710;14.492;2022-08-19T07:57:36;23.65;71.21
65470;DHT22;52067;50.710;14.492;2022-08-19T08:00:03;23.63;71.45
65470;DHT22;52067;50.710;14.492;2022-08-19T08:02:29;23.69;71.17
65470;DHT22;52067;50.710;14.492;2022-08-19T08:04:54;23.75;70.41
65470;DHT22;52067;50.710;14.492;2022-08-19T08:07:38;23.75;70.84
65470;DHT22;52067;50.710;14.492;2022-08-19T08:10:22;23.66;70.73
65470;DHT22;52067;50.710;14.492;2022-08-19T08:12:47;23.87;70.53
65470;DHT22;52067;50.710;14.492;2022-08-19T08:15:15;23.76;69.68
65470;DHT22;52067;50.710;14.492;2022-08-19T08:17:44;23.83;70.34
65470;DHT22;52067;50.710;14.492;2022-08-19T08:20:10;24.02;69.77
65470;DHT22;52067;50.710;14.492;2022-08-19T08:22:35;24.18;70.24
65470;DHT22;52067;50.710;14.492;2022-08-19T08:25:23;24.33;68.71
65470;DHT22;52067;50.710;14.492;2022-08-19T08:27:50;23.99;70.35
65470;DHT22;52067;50.710;14.492;2022-08-19T08:30:20;23.54;72.60
65470;DHT22;52067;50.710;14.492;2022-08-19T08:32:47;23.92;70.43
65470;DHT22;52067;50.710;14.492;2022-08-19T08:35:15;23.49;72.11
65470;DHT22;52067;50.710;14.492;2022-08-19T08:37:41;23.42;73.31
65470;DHT22;52067;50.710;14.492;2022-08-19T08:40:38;23.69;72.63
65470;DHT22;52067;50.710;14.492;2022-08-19T08:43:27;23.21;73.85
65470;DHT22;52067;50.710;14.492;2022-08-19T08:45:59;23.19;73.64
65470;DHT22;52067;50.710;14.492;2022-08-19T08:48:46;23.27;73.27
65470;DHT22;52067;50.710;14.492;2022-08-19T08:51:20;22.96;74.09
65470;DHT22;52067;50.710;14.492;2022-08-19T08:53:49;23.06;74.17
65470;DHT22;52067;50.710;14.492;2022-08-19T08:56:16;23.07;73.71
65470;DHT22;52067;50.710;14.492;2022-08-19T08:58:54;22.93;74.82
65470;DHT22;52067;50.710;14.492;2022-08-19T09:01:21;23.15;74.40
65470;DHT22;52067;50.710;14.492;2022-08-19T09:03:47;23.59;72.96
65470;DHT22;52067;50.710;14.492;2022-08-19T09:06:36;23.97;72.06
65470;DHT22;52067;50.710;14.492;2022-08-19T09:09:29;23.96;72.00
65470;DHT22;52067;50.710;14.492;2022-08-19T09:14:34;24.35;69.39
65470;DHT22;52067;50.710;14.492;2022-08-19T09:17:00;24.25;70.30
65470;DHT22;52067;50.710;14.492;2022-08-19T09:19:29;23.94;70.98
65470;DHT22;52067;50.710;14.492;2022-08-19T09:21:54;24.04;71.33
65470;DHT22;52067;50.710;14.492;2022-08-19T09:24:20;23.87;71.54
65470;DHT22;52067;50.710;14.492;2022-08-19T09:26:45;23.54;72.84
65470;DHT22;52067;50.710;14.492;2022-08-19T09:29:11;23.55;72.15
65470;DHT22;52067;50.710;14.492;2022-08-19T09:31:37;23.52;73.79
65470;DHT22;52067;50.710;14.492;2022-08-19T09:34:03;23.76;71.73
65470;DHT22;52067;50.710;14.492;2022-08-19T09:36:31;23.70;70.68
65470;DHT22;52067;50.710;14.492;2022-08-19T09:39:03;23.51;72.29
65470;DHT22;52067;50.710;14.492;2022-08-19T09:41:29;23.51;71.50
65470;DHT22;52067;50.710;14.492;2022-08-19T09:43:55;23.45;71.20
65470;DHT22;52067;50.710;14.492;2022-08-19T09:46:25;23.51;71.78
65470;DHT22;52067;50.710;14.492;2022-08-19T09:48:52;23.14;72.19
65470;DHT22;52067;50.710;14.492;2022-08-19T09:51:23;23.37;71.99
65470;DHT22;52067;50.710;14.492;2022-08-19T09:53:50;23.27;71.79
65470;DHT22;52067;50.710;14.492;2022-08-19T09:56:18;23.41;71.42
65470;DHT22;52067;50.710;14.492;2022-08-19T09:58:44;23.58;71.11
65470;DHT22;52067;50.710;14.492;2022-08-19T10:01:18;23.17;72.93
65470;DHT22;52067;50.710;14.492;2022-08-19T10:03:47;23.15;73.69
65470;DHT22;52067;50.710;14.492;2022-08-19T10:06:13;23.14;73.99
65470;DHT22;52067;50.710;14.492;2022-08-19T10:08:38;23.67;72.14
65470;DHT22;52067;50.710;14.492;2022-08-19T10:11:05;23.54;71.35
65470;DHT22;52067;50.710;14.492;2022-08-19T10:13:32;23.83;70.89
65470;DHT22;52067;50.710;14.492;2022-08-19T10:16:06;23.96;70.29
65470;DHT22;52067;50.710;14.492;2022-08-19T10:18:33;24.07;69.78
65470;DHT22;52067;50.710;14.492;2022-08-19T10:21:07;24.03;69.98
65470;DHT22;52067;50.710;14.492;2022-08-19T10:23:33;24.09;71.29
65470;DHT22;52067;50.710;14.492;2022-08-19T10:26:06;23.77;71.87
65470;DHT22;52067;50.710;14.492;2022-08-19T10:28:36;23.45;72.10
65470;DHT22;52067;50.710;14.492;2022-08-19T10:31:11;23.19;73.14
65470;DHT22;52067;50.710;14.492;2022-08-19T10:33:37;23.41;71.78
65470;DHT22;52067;50.710;14.492;2022-08-19T10:36:09;23.28;72.59
65470;DHT22;52067;50.710;14.492;2022-08-19T10:38:35;23.18;72.87
65470;DHT22;52067;50.710;14.492;2022-08-19T10:41:13;23.39;72.57
65470;DHT22;52067;50.710;14.492;2022-08-19T10:43:40;23.41;72.84
65470;DHT22;52067;50.710;14.492;2022-08-19T10:46:07;23.46;72.52
65470;DHT22;52067;50.710;14.492;2022-08-19T10:48:33;23.24;73.09
65470;DHT22;52067;50.710;14.492;2022-08-19T10:50:59;23.12;73.83
65470;DHT22;52067;50.710;14.492;2022-08-19T10:53:42;23.12;74.22
65470;DHT22;52067;50.710;14.492;2022-08-19T10:56:08;23.08;74.75
65470;DHT22;52067;50.710;14.492;2022-08-19T10:58:52;23.35;74.03
65470;DHT22;52067;50.710;14.492;2022-08-19T11:01:17;23.04;74.97
65470;DHT22;52067;50.710;14.492;2022-08-19T11:03:43;23.29;72.86
65470;DHT22;52067;50.710;14.492;2022-08-19T11:06:10;23.22;73.17
65470;DHT22;52067;50.710;14.492;2022-08-19T11:08:36;23.29;73.17
65470;DHT22;52067;50.710;14.492;2022-08-19T11:11:07;23.38;73.25
65470;DHT22;52067;50.710;14.492;2022-08-19T11:13:36;23.29;73.42
65470;DHT22;52067;50.710;14.492;2022-08-19T11:16:14;23.28;73.45
65470;DHT22;52067;50.710;14.492;2022-08-19T11:18:47;23.10;74.01
65470;DHT22;52067;50.710;14.492;2022-08-19T11:21:17;23.27;73.60
65470;DHT22;52067;50.710;14.492;2022-08-19T11:23:45;23.61;72.18
65470;DHT22;52067;50.710;14.492;2022-08-19T11:26:11;23.87;71.98
65470;DHT22;52067;50.710;14.492;2022-08-19T11:28:36;24.10;70.43
65470;DHT22;52067;50.710;14.492;2022-08-19T11:31:02;24.30;69.23
65470;DHT22;52067;50.710;14.492;2022-08-19T11:33:31;23.63;71.67
65470;DHT22;52067;50.710;14.492;2022-08-19T11:35:58;24.48;68.77
65470;DHT22;52067;50.710;14.492;2022-08-19T11:38:25;24.58;68.41
65470;DHT22;52067;50.710;14.492;2022-08-19T11:40:58;24.64;68.42
65470;DHT22;52067;50.710;14.492;2022-08-19T11:43:24;24.79;68.13
65470;DHT22;52067;50.710;14.492;2022-08-19T11:45:52;24.45;68.85
65470;DHT22;52067;50.710;14.492;2022-08-19T11:48:17;24.81;69.17
65470;DHT22;52067;50.710;14.492;2022-08-19T11:50:44;24.71;69.86
65470;DHT22;52067;50.710;14.492;2022-08-19T11:53:09;25.18;67.22
65470;DHT22;52067;50.710;14.492;2022-08-19T11:55:38;25.18;66.04
65470;DHT22;52067;50.710;14.492;2022-08-19T11:58:05;24.34;69.82
65470;DHT22;52067;50.710;14.492;2022-08-19T12:00:32;24.88;68.35
65470;DHT22;52067;50.710;14.492;2022-08-19T12:03:00;24.96;66.75
65470;DHT22;52067;50.710;14.492;2022-08-19T12:05:26;24.83;68.58
65470;DHT22;52067;50.710;14.492;2022-08-19T12:07:51;25.13;67.19
65470;DHT22;52067;50.710;14.492;2022-08-19T12:10:16;25.33;67.40
65470;DHT22;52067;50.710;14.492;2022-08-19T12:12:43;25.59;65.48
65470;DHT22;52067;50.710;14.492;2022-08-19T12:15:11;25.70;65.62
65470;DHT22;52067;50.710;14.492;2022-08-19T12:17:37;25.78;63.90
65470;DHT22;52067;50.710;14.492;2022-08-19T12:20:03;25.68;64.38
65470;DHT22;52067;50.710;14.492;2022-08-19T12:22:29;25.66;65.04
65470;DHT22;52067;50.710;14.492;2022-08-19T12:24:55;25.94;63.62
65470;DHT22;52067;50.710;14.492;2022-08-19T12:27:20;25.24;66.08
65470;DHT22;52067;50.710;14.492;2022-08-19T12:29:46;25.77;65.22
65470;DHT22;52067;50.710;14.492;2022-08-19T12:32:12;25.84;64.56
65470;DHT22;52067;50.710;14.492;2022-08-19T12:34:38;25.78;64.03
65470;DHT22;52067;50.710;14.492;2022-08-19T12:37:04;25.98;64.06
65470;DHT22;52067;50.710;14.492;2022-08-19T12:39:34;26.37;63.57
65470;DHT22;52067;50.710;14.492;2022-08-19T12:42:00;25.95;64.90
65470;DHT22;52067;50.710;14.492;2022-08-19T12:44:25;26.67;62.26
65470;DHT22;52067;50.710;14.492;2022-08-19T12:46:51;26.98;60.27
65470;DHT22;52067;50.710;14.492;2022-08-19T12:49:16;26.14;63.53
65470;DHT22;52067;50.710;14.492;2022-08-19T12:51:42;27.27;59.99
65470;DHT22;52067;50.710;14.492;2022-08-19T12:54:07;26.40;62.68
65470;DHT22;52067;50.710;14.492;2022-08-19T12:56:33;25.78;64.87
65470;DHT22;52067;50.710;14.492;2022-08-19T12:59:01;25.66;65.54
65470;DHT22;52067;50.710;14.492;2022-08-19T13:01:27;26.60;62.93
65470;DHT22;52067;50.710;14.492;2022-08-19T13:03:55;27.88;59.58
65470;DHT22;52067;50.710;14.492;2022-08-19T13:06:20;29.08;55.08
65470;DHT22;52067;50.710;14.492;2022-08-19T13:08:46;28.65;56.25
65470;DHT22;52067;50.710;14.492;2022-08-19T13:11:14;29.33;55.02
65470;DHT22;52067;50.710;14.492;2022-08-19T13:13:45;28.82;55.68
65470;DHT22;52067;50.710;14.492;2022-08-19T13:16:12;28.67;55.29
65470;DHT22;52067;50.710;14.492;2022-08-19T13:18:38;30.93;48.51
65470;DHT22;52067;50.710;14.492;2022-08-19T13:21:05;28.30;56.85
65470;DHT22;52067;50.710;14.492;2022-08-19T13:23:31;29.50;54.58
65470;DHT22;52067;50.710;14.492;2022-08-19T13:25:58;31.18;48.60
65470;DHT22;52067;50.710;14.492;2022-08-19T13:28:24;30.73;49.04
65470;DHT22;52067;50.710;14.492;2022-08-19T13:30:49;31.04;48.64
65470;DHT22;52067;50.710;14.492;2022-08-19T13:33:33;30.63;48.74
65470;DHT22;52067;50.710;14.492;2022-08-19T13:36:00;30.42;49.77
65470;DHT22;52067;50.710;14.492;2022-08-19T13:38:27;30.82;48.92
65470;DHT22;52067;50.710;14.492;2022-08-19T13:40:54;30.09;50.34
65470;DHT22;52067;50.710;14.492;2022-08-19T13:43:22;29.63;52.32
65470;DHT22;52067;50.710;14.492;2022-08-19T13:45:53;28.44;54.83
65470;DHT22;52067;50.710;14.492;2022-08-19T13:48:20;29.97;52.00
65470;DHT22;52067;50.710;14.492;2022-08-19T13:50:46;30.91;49.17
65470;DHT22;52067;50.710;14.492;2022-08-19T13:53:13;29.73;52.42
65470;DHT22;52067;50.710;14.492;2022-08-19T13:55:40;29.57;52.37
65470;DHT22;52067;50.710;14.492;2022-08-19T13:58:06;30.22;49.77
65470;DHT22;52067;50.710;14.492;2022-08-19T14:00:39;30.02;52.62
65470;DHT22;52067;50.710;14.492;2022-08-19T14:03:05;31.06;49.33
65470;DHT22;52067;50.710;14.492;2022-08-19T14:05:31;31.48;47.01
65470;DHT22;52067;50.710;14.492;2022-08-19T14:07:57;31.31;47.20
65470;DHT22;52067;50.710;14.492;2022-08-19T14:10:24;29.76;51.09
65470;DHT22;52067;50.710;14.492;2022-08-19T14:12:58;31.08;47.42
65470;DHT22;52067;50.710;14.492;2022-08-19T14:15:24;31.52;47.90
65470;DHT22;52067;50.710;14.492;2022-08-19T14:17:50;32.84;43.26
65470;DHT22;52067;50.710;14.492;2022-08-19T14:20:16;33.29;42.61
65470;DHT22;52067;50.710;14.492;2022-08-19T14:22:42;30.35;49.09
65470;DHT22;52067;50.710;14.492;2022-08-19T14:25:11;30.42;50.26
65470;DHT22;52067;50.710;14.492;2022-08-19T14:27:38;32.44;44.66
65470;DHT22;52067;50.710;14.492;2022-08-19T14:30:05;30.97;46.97
65470;DHT22;52067;50.710;14.492;2022-08-19T14:32:32;31.75;46.58
65470;DHT22;52067;50.710;14.492;2022-08-19T14:34:58;31.80;45.44
65470;DHT22;52067;50.710;14.492;2022-08-19T14:37:23;30.87;48.45
65470;DHT22;52067;50.710;14.492;2022-08-19T14:39:48;31.58;46.90
65470;DHT22;52067;50.710;14.492;2022-08-19T14:42:14;31.35;46.87
65470;DHT22;52067;50.710;14.492;2022-08-19T14:44:41;29.08;51.89
65470;DHT22;52067;50.710;14.492;2022-08-19T14:47:06;29.49;52.57
65470;DHT22;52067;50.710;14.492;2022-08-19T14:49:33;29.64;51.19
65470;DHT22;52067;50.710;14.492;2022-08-19T14:51:58;31.03;47.94
65470;DHT22;52067;50.710;14.492;2022-08-19T14:54:23;30.25;50.04
65470;DHT22;52067;50.710;14.492;2022-08-19T14:56:49;30.46;50.41
65470;DHT22;52067;50.710;14.492;2022-08-19T14:59:15;30.37;49.19
65470;DHT22;52067;50.710;14.492;2022-08-19T15:01:41;30.15;50.58
65470;DHT22;52067;50.710;14.492;2022-08-19T15:04:06;31.01;47.33
65470;DHT22;52067;50.710;14.492;2022-08-19T15:06:32;30.45;49.05
65470;DHT22;52067;50.710;14.492;2022-08-19T15:08:58;30.15;49.44
65470;DHT22;52067;50.710;14.492;2022-08-19T15:11:25;28.50;53.02
65470;DHT22;52067;50.710;14.492;2022-08-19T15:13:53;27.63;57.17
65470;DHT22;52067;50.710;14.492;2022-08-19T15:16:19;27.74;57.01
65470;DHT22;52067;50.710;14.492;2022-08-19T15:18:48;28.14;54.44
65470;DHT22;52067;50.710;14.492;2022-08-19T15:21:15;26.94;59.16
65470;DHT22;52067;50.710;14.492;2022-08-19T15:23:51;27.56;57.93
65470;DHT22;52067;50.710;14.492;2022-08-19T15:26:17;27.41;57.79
65470;DHT22;52067;50.710;14.492;2022-08-19T15:28:43;27.48;57.68